sensor_id;sensor_type;location;lat;lon;timestamp;pressure;altitude;pressure_sealevel;temperature;humidity
77739;BME280;66904;59.926;30.404;2023-08-06T00:04:02;101630.97;;;27.86;51.70
77739;BME280;66904;59.926;30.404;2023-08-06T00:09:03;101638.72;;;27.89;51.95
77739;BME280;66904;59.926;30.404;2023-08-06T00:14:03;101634.31;;;27.88;51.60
77739;BME280;66904;59.926;30.404;2023-08-06T00:19:04;101628.44;;;27.91;51.67
77739;BME280;66904;59.926;30.404;2023-08-06T00:24:04;101645.59;;;27.85;51.40
77739;BME280;66904;59.926;30.404;2023-08-06T00:29:05;101630.72;;;27.74;51.85
77739;BME280;66904;59.926;30.404;2023-08-06T00:34:05;101624.19;;;27.68;51.75
77739;BME280;66904;59.926;30.404;2023-08-06T00:39:06;101629.44;;;27.70;51.60
77739;BME280;66904;59.926;30.404;2023-08-06T00:44:07;101631.09;;;27.71;51.31
77739;BME280;66904;59.926;30.404;2023-08-06T00:49:08;101633.41;;;27.67;51.30
77739;BME280;66904;59.926;30.404;2023-08-06T00:54:09;101635.91;;;27.69;51.71
77739;BME280;66904;59.926;30.404;2023-08-06T00:59:11;101642.38;;;27.68;51.33
77739;BME280;66904;59.926;30.404;2023-08-06T01:04:12;101632.78;;;27.72;51.17
77739;BME280;66904;59.926;30.404;2023-08-06T01:20:05;101597.44;;;27.72;50.81
77739;BME280;66904;59.926;30.404;2023-08-06T01:25:07;101599.97;;;27.73;51.48
77739;BME280;66904;59.926;30.404;2023-08-06T01:30:21;101592.66;;;27.74;51.15
77739;BME280;66904;59.926;30.404;2023-08-06T01:35:25;101589.28;;;27.72;50.92
77739;BME280;66904;59.926;30.404;2023-08-06T01:40:27;101595.75;;;27.71;50.55
77739;BME280;66904;59.926;30.404;2023-08-06T01:45:29;101603.28;;;27.69;50.93
77739;BME280;66904;59.926;30.404;2023-08-06T01:50:30;101597.84;;;27.69;50.60
77739;BME280;66904;59.926;30.404;2023-08-06T01:55:30;101583.19;;;27.63;51.22
77739;BME280;66904;59.926;30.404;2023-08-06T02:00:31;101576.44;;;27.46;50.90
77739;BME280;66904;59.926;30.404;2023-08-06T02:05:31;101577.84;;;27.42;51.42
77739;BME280;66904;59.926;30.404;2023-08-06T02:10:32;101572.59;;;27.28;51.58
77739;BME280;66904;59.926;30.404;2023-08-06T02:15:33;101581.75;;;27.27;51.47
77739;BME280;66904;59.926;30.404;2023-08-06T02:20:33;101579.88;;;27.20;51.81
77739;BME280;66904;59.926;30.404;2023-08-06T02:25:34;101589.06;;;27.26;51.46
77739;BME280;66904;59.926;30.404;2023-08-06T02:30:34;101584.69;;;27.32;51.59
77739;BME280;66904;59.926;30.404;2023-08-06T02:35:35;101580.97;;;27.39;51.15
77739;BME280;66904;59.926;30.404;2023-08-06T02:40:35;101586.47;;;27.46;51.66
77739;BME280;66904;59.926;30.404;2023-08-06T02:45:36;101583.97;;;27.44;51.66
77739;BME280;66904;59.926;30.404;2023-08-06T02:50:40;101586.38;;;27.33;51.78
77739;BME280;66904;59.926;30.404;2023-08-06T02:55:45;101579.88;;;27.20;52.04
77739;BME280;66904;59.926;30.404;2023-08-06T03:00:46;101587.78;;;27.22;51.74
77739;BME280;66904;59.926;30.404;2023-08-06T03:05:53;101597.66;;;27.30;51.54
77739;BME280;66904;59.926;30.404;2023-08-06T03:10:54;101605.22;;;27.34;51.93
77739;BME280;66904;59.926;30.404;2023-08-06T03:15:56;101610.25;;;27.37;51.67
77739;BME280;66904;59.926;30.404;2023-08-06T03:20:57;101592.03;;;27.38;51.81
77739;BME280;66904;59.926;30.404;2023-08-06T03:26:02;101594.13;;;27.36;51.80
77739;BME280;66904;59.926;30.404;2023-08-06T03:31:03;101590.56;;;27.35;51.58
77739;BME280;66904;59.926;30.404;2023-08-06T03:36:04;101586.78;;;27.30;51.81
77739;BME280;66904;59.926;30.404;2023-08-06T03:41:04;101590.97;;;27.32;52.16
77739;BME280;66904;59.926;30.404;2023-08-06T03:46:05;101592.25;;;27.36;51.66
77739;BME280;66904;59.926;30.404;2023-08-06T03:51:05;101585.56;;;27.39;51.77
77739;BME280;66904;59.926;30.404;2023-08-06T03:56:06;101590.97;;;27.32;52.06
77739;BME280;66904;59.926;30.404;2023-08-06T04:01:06;101590.53;;;27.29;51.83
77739;BME280;66904;59.926;30.404;2023-08-06T04:06:07;101584.69;;;27.32;52.42
77739;BME280;66904;59.926;30.404;2023-08-06T04:11:08;101582.97;;;27.17;52.64
77739;BME280;66904;59.926;30.404;2023-08-06T04:16:08;101575.66;;;27.18;52.37
77739;BME280;66904;59.926;30.404;2023-08-06T04:21:09;101574.84;;;27.17;52.63
77739;BME280;66904;59.926;30.404;2023-08-06T04:26:09;101561.69;;;27.21;52.74
77739;BME280;66904;59.926;30.404;2023-08-06T04:31:10;101559.72;;;27.08;52.32
77739;BME280;66904;59.926;30.404;2023-08-06T04:36:11;101551.75;;;27.00;52.73
77739;BME280;66904;59.926;30.404;2023-08-06T04:41:12;101548.56;;;26.90;52.63
77739;BME280;66904;59.926;30.404;2023-08-06T04:46:12;101536.34;;;26.80;53.01
77739;BME280;66904;59.926;30.404;2023-08-06T04:51:13;101529.03;;;26.80;53.10
77739;BME280;66904;59.926;30.404;2023-08-06T04:56:14;101531.94;;;26.79;53.10
77739;BME280;66904;59.926;30.404;2023-08-06T05:01:14;101522.22;;;26.84;52.83
77739;BME280;66904;59.926;30.404;2023-08-06T05:06:15;101524.28;;;26.82;52.68
77739;BME280;66904;59.926;30.404;2023-08-06T05:11:16;101508.41;;;26.86;52.91
77739;BME280;66904;59.926;30.404;2023-08-06T05:16:16;101500.69;;;26.89;52.46
77739;BME280;66904;59.926;30.404;2023-08-06T05:21:17;101511.81;;;26.94;52.17
77739;BME280;66904;59.926;30.404;2023-08-06T05:26:17;101507.84;;;26.97;52.41
77739;BME280;66904;59.926;30.404;2023-08-06T05:31:19;101513.25;;;26.90;52.55
77739;BME280;66904;59.926;30.404;2023-08-06T05:36:20;101500.94;;;26.88;52.57
77739;BME280;66904;59.926;30.404;2023-08-06T05:41:21;101487.72;;;26.85;52.35
77739;BME280;66904;59.926;30.404;2023-08-06T05:46:21;101490.59;;;26.77;52.83
77739;BME280;66904;59.926;30.404;2023-08-06T05:51:22;101484.59;;;26.81;52.75
77739;BME280;66904;59.926;30.404;2023-08-06T05:56:23;101481.88;;;26.81;52.29
77739;BME280;66904;59.926;30.404;2023-08-06T06:01:24;101474.13;;;26.85;52.23
77739;BME280;66904;59.926;30.404;2023-08-06T06:06:24;101481.88;;;26.81;52.87
77739;BME280;66904;59.926;30.404;2023-08-06T06:11:25;101491.28;;;26.85;52.81
77739;BME280;66904;59.926;30.404;2023-08-06T06:16:25;101488.38;;;26.87;52.63
77739;BME280;66904;59.926;30.404;2023-08-06T06:21:26;101483.78;;;26.87;52.68
77739;BME280;66904;59.926;30.404;2023-08-06T06:26:26;101474.41;;;26.96;52.70
77739;BME280;66904;59.926;30.404;2023-08-06T06:31:27;101467.13;;;26.97;52.63
77739;BME280;66904;59.926;30.404;2023-08-06T06:36:28;101459.00;;;27.03;52.68
77739;BME280;66904;59.926;30.404;2023-08-06T06:41:28;101457.56;;;27.07;52.74
77739;BME280;66904;59.926;30.404;2023-08-06T06:46:31;101457.16;;;27.10;52.36
77739;BME280;66904;59.926;30.404;2023-08-06T06:51:32;101453.16;;;27.06;52.47
77739;BME280;66904;59.926;30.404;2023-08-06T06:56:33;101442.50;;;27.11;52.91
77739;BME280;66904;59.926;30.404;2023-08-06T07:01:33;101448.59;;;27.13;52.57
77739;BME280;66904;59.926;30.404;2023-08-06T07:06:34;101435.00;;;27.13;52.45
77739;BME280;66904;59.926;30.404;2023-08-06T07:11:34;101443.34;;;27.18;52.46
77739;BME280;66904;59.926;30.404;2023-08-06T07:16:35;101446.31;;;27.23;52.39
77739;BME280;66904;59.926;30.404;2023-08-06T07:21:35;101448.41;;;27.28;52.75
77739;BME280;66904;59.926;30.404;2023-08-06T07:26:36;101437.34;;;27.30;52.96
77739;BME280;66904;59.926;30.404;2023-08-06T07:31:37;101437.75;;;27.27;52.91
77739;BME280;66904;59.926;30.404;2023-08-06T07:36:37;101437.09;;;27.24;53.11
77739;BME280;66904;59.926;30.404;2023-08-06T07:41:38;101436.31;;;27.31;53.24
77739;BME280;66904;59.926;30.404;2023-08-06T07:46:39;101450.31;;;27.34;53.04
77739;BME280;66904;59.926;30.404;2023-08-06T07:51:39;101443.22;;;27.40;53.22
77739;BME280;66904;59.926;30.404;2023-08-06T07:56:40;101444.53;;;27.50;53.68
77739;BME280;66904;59.926;30.404;2023-08-06T08:01:41;101434.50;;;27.57;54.09
77739;BME280;66904;59.926;30.404;2023-08-06T08:06:41;101453.75;;;27.69;54.29
77739;BME280;66904;59.926;30.404;2023-08-06T08:11:42;101458.75;;;27.85;54.30
77739;BME280;66904;59.926;30.404;2023-08-06T08:16:43;101448.72;;;27.99;54.31
77739;BME280;66904;59.926;30.404;2023-08-06T08:21:43;101450.84;;;28.10;54.10
77739;BME280;66904;59.926;30.404;2023-08-06T08:26:44;101452.31;;;28.19;53.84
77739;BME280;66904;59.926;30.404;2023-08-06T08:31:44;101449.75;;;28.24;53.90
77739;BME280;66904;59.926;30.404;2023-08-06T08:36:45;101439.09;;;28.29;54.11
77739;BME280;66904;59.926;30.404;2023-08-06T08:41:50;101424.03;;;28.33;53.99
77739;BME280;66904;59.926;30.404;2023-08-06T08:46:50;101434.25;;;28.38;53.70
77739;BME280;66904;59.926;30.404;2023-08-06T08:51:53;101412.28;;;28.39;53.95
77739;BME280;66904;59.926;30.404;2023-08-06T08:56:53;101413.13;;;28.40;53.85
77739;BME280;66904;59.926;30.404;2023-08-06T09:01:56;101413.09;;;28.46;54.00
77739;BME280;66904;59.926;30.404;2023-08-06T09:06:58;101430.03;;;28.48;53.86
77739;BME280;66904;59.926;30.404;2023-08-06T09:12:01;101420.59;;;28.51;54.10
77739;BME280;66904;59.926;30.404;2023-08-06T09:17:04;101423.13;;;28.52;54.12
77739;BME280;66904;59.926;30.404;2023-08-06T09:22:06;101423.13;;;28.52;54.03
77739;BME280;66904;59.926;30.404;2023-08-06T09:27:12;101416.66;;;28.53;54.21
77739;BME280;66904;59.926;30.404;2023-08-06T09:32:15;101408.06;;;28.50;53.95
77739;BME280;66904;59.926;30.404;2023-08-06T09:37:16;101417.25;;;28.55;54.10
77739;BME280;66904;59.926;30.404;2023-08-06T09:42:16;101411.41;;;28.52;53.88
77739;BME280;66904;59.926;30.404;2023-08-06T09:47:17;101411.41;;;28.52;53.91
77739;BME280;66904;59.926;30.404;2023-08-06T09:52:18;101408.25;;;28.55;54.09
77739;BME280;66904;59.926;30.404;2023-08-06T09:57:19;101408.47;;;28.53;54.15
77739;BME280;66904;59.926;30.404;2023-08-06T10:02:24;101403.22;;;28.52;54.29
77739;BME280;66904;59.926;30.404;2023-08-06T10:07:27;101395.91;;;28.52;54.23
77739;BME280;66904;59.926;30.404;2023-08-06T10:12:34;101378.97;;;28.50;54.36
77739;BME280;66904;59.926;30.404;2023-08-06T10:17:36;101362.41;;;28.45;54.19
77739;BME280;66904;59.926;30.404;2023-08-06T10:22:42;101372.66;;;28.50;54.49
77739;BME280;66904;59.926;30.404;2023-08-06T10:28:09;101376.84;;;28.52;54.01
77739;BME280;66904;59.926;30.404;2023-08-06T10:33:10;101369.31;;;28.48;54.01
77739;BME280;66904;59.926;30.404;2023-08-06T10:38:14;101386.47;;;28.48;53.97
77739;BME280;66904;59.926;30.404;2023-08-06T10:43:30;101393.38;;;28.51;54.27
77739;BME280;66904;59.926;30.404;2023-08-06T10:48:41;101395.50;;;28.49;53.96
77739;BME280;66904;59.926;30.404;2023-08-06T10:53:46;101370.38;;;28.47;54.13
77739;BME280;66904;59.926;30.404;2023-08-06T10:58:48;101376.63;;;28.47;54.17
77739;BME280;66904;59.926;30.404;2023-08-06T11:03:50;101372.25;;;28.46;54.04
77739;BME280;66904;59.926;30.404;2023-08-06T11:08:52;101366.81;;;28.46;53.95
77739;BME280;66904;59.926;30.404;2023-08-06T11:13:53;101372.25;;;28.46;53.93
77739;BME280;66904;59.926;30.404;2023-08-06T11:18:55;101368.69;;;28.46;53.70
77739;BME280;66904;59.926;30.404;2023-08-06T11:23:56;101366.81;;;28.46;53.89
77739;BME280;66904;59.926;30.404;2023-08-06T11:28:57;101371.19;;;28.47;54.07
77739;BME280;66904;59.926;30.404;2023-08-06T11:33:58;101356.38;;;28.43;53.83
77739;BME280;66904;59.926;30.404;2023-08-06T11:39:03;101370.38;;;28.47;54.11
77739;BME280;66904;59.926;30.404;2023-08-06T11:44:05;101357.56;;;28.47;54.09
77739;BME280;66904;59.926;30.404;2023-08-06T11:49:06;101361.38;;;28.46;54.11
77739;BME280;66904;59.926;30.404;2023-08-06T11:54:07;101347.75;;;28.46;54.07
77739;BME280;66904;59.926;30.404;2023-08-06T11:59:08;101348.59;;;28.47;53.73
77739;BME280;66904;59.926;30.404;2023-08-06T12:04:09;101347.75;;;28.46;53.78
77739;BME280;66904;59.926;30.404;2023-08-06T12:09:09;101337.72;;;28.47;53.76
77739;BME280;66904;59.926;30.404;2023-08-06T12:14:11;101342.31;;;28.46;53.78
77739;BME280;66904;59.926;30.404;2023-08-06T12:19:11;101338.75;;;28.46;53.62
77739;BME280;66904;59.926;30.404;2023-08-06T12:24:12;101337.72;;;28.47;53.86
77739;BME280;66904;59.926;30.404;2023-08-06T12:29:12;101335.81;;;28.47;53.61
77739;BME280;66904;59.926;30.404;2023-08-06T12:34:13;101333.31;;;28.46;53.77
77739;BME280;66904;59.926;30.404;2023-08-06T12:39:13;101327.44;;;28.49;53.82
77739;BME280;66904;59.926;30.404;2023-08-06T12:44:14;101321.16;;;28.48;53.80
77739;BME280;66904;59.926;30.404;2023-08-06T12:49:14;101318.66;;;28.47;53.87
77739;BME280;66904;59.926;30.404;2023-08-06T12:54:18;101315.94;;;28.47;53.82
77739;BME280;66904;59.926;30.404;2023-08-06T12:59:19;101307.53;;;28.48;53.54
77739;BME280;66904;59.926;30.404;2023-08-06T13:04:20;101306.69;;;28.48;53.96
77739;BME280;66904;59.926;30.404;2023-08-06T13:09:20;101299.38;;;28.48;53.80
77739;BME280;66904;59.926;30.404;2023-08-06T13:14:21;101288.28;;;28.50;53.60
77739;BME280;66904;59.926;30.404;2023-08-06T13:19:22;101287.03;;;28.46;53.76
77739;BME280;66904;59.926;30.404;2023-08-06T13:24:22;101288.72;;;28.47;53.64
77739;BME280;66904;59.926;30.404;2023-08-06T13:29:23;101280.09;;;28.50;53.53
77739;BME280;66904;59.926;30.404;2023-08-06T13:34:23;101278.44;;;28.49;53.88
77739;BME280;66904;59.926;30.404;2023-08-06T13:39:24;101289.31;;;28.49;53.69
77739;BME280;66904;59.926;30.404;2023-08-06T13:44:24;101291.00;;;28.50;53.55
77739;BME280;66904;59.926;30.404;2023-08-06T13:49:25;101285.56;;;28.50;53.57
77739;BME280;66904;59.926;30.404;2023-08-06T13:54:25;101286.41;;;28.50;53.35
77739;BME280;66904;59.926;30.404;2023-08-06T13:59:26;101275.50;;;28.50;53.18
77739;BME280;66904;59.926;30.404;2023-08-06T14:04:26;101282.59;;;28.51;53.36
77739;BME280;66904;59.926;30.404;2023-08-06T14:09:27;101271.94;;;28.50;53.52
77739;BME280;66904;59.926;30.404;2023-08-06T14:14:27;101263.13;;;28.48;53.71
77739;BME280;66904;59.926;30.404;2023-08-06T14:19:28;101266.91;;;28.53;53.69
77739;BME280;66904;59.926;30.404;2023-08-06T14:24:29;101259.34;;;28.55;53.36
77739;BME280;66904;59.926;30.404;2023-08-06T14:29:29;101256.41;;;28.57;53.23
77739;BME280;66904;59.926;30.404;2023-08-06T14:34:30;101252.59;;;28.58;53.30
77739;BME280;66904;59.926;30.404;2023-08-06T14:39:31;101248.25;;;28.57;53.47
77739;BME280;66904;59.926;30.404;2023-08-06T14:44:31;101255.72;;;28.61;53.50
77739;BME280;66904;59.926;30.404;2023-08-06T14:49:32;101247.56;;;28.61;53.37
77739;BME280;66904;59.926;30.404;2023-08-06T14:54:32;101246.72;;;28.61;53.42
77739;BME280;66904;59.926;30.404;2023-08-06T14:59:33;101238.34;;;28.62;53.75
77739;BME280;66904;59.926;30.404;2023-08-06T15:04:34;101243.56;;;28.64;53.46
77739;BME280;66904;59.926;30.404;2023-08-06T15:09:34;101234.78;;;28.62;53.84
77739;BME280;66904;59.926;30.404;2023-08-06T15:14:35;101241.06;;;28.62;53.91
77739;BME280;66904;59.926;30.404;2023-08-06T15:19:35;101230.78;;;28.64;53.88
77739;BME280;66904;59.926;30.404;2023-08-06T15:24:36;101228.91;;;28.65;53.87
77739;BME280;66904;59.926;30.404;2023-08-06T15:29:41;101234.34;;;28.65;54.06
77739;BME280;66904;59.926;30.404;2023-08-06T15:34:43;101222.44;;;28.59;53.99
77739;BME280;66904;59.926;30.404;2023-08-06T15:39:43;101227.22;;;28.64;54.17
77739;BME280;66904;59.926;30.404;2023-08-06T15:44:44;101224.28;;;28.65;54.25
77739;BME280;66904;59.926;30.404;2023-08-06T15:49:45;101219.28;;;28.62;54.26
77739;BME280;66904;59.926;30.404;2023-08-06T15:54:45;101225.34;;;28.64;54.11
77739;BME280;66904;59.926;30.404;2023-08-06T15:59:46;101231.44;;;28.66;54.58
77739;BME280;66904;59.926;30.404;2023-08-06T16:04:46;101220.94;;;28.70;54.59
77739;BME280;66904;59.926;30.404;2023-08-06T16:09:47;101220.72;;;28.71;54.73
77739;BME280;66904;59.926;30.404;2023-08-06T16:14:48;101222.41;;;28.72;54.96
77739;BME280;66904;59.926;30.404;2023-08-06T16:19:49;101219.88;;;28.71;54.88
77739;BME280;66904;59.926;30.404;2023-08-06T16:24:49;101225.72;;;28.74;54.85
77739;BME280;66904;59.926;30.404;2023-08-06T16:29:50;101216.31;;;28.70;54.92
77739;BME280;66904;59.926;30.404;2023-08-06T16:34:51;101231.41;;;28.73;54.75
77739;BME280;66904;59.926;30.404;2023-08-06T16:39:53;101216.94;;;28.72;55.00
77739;BME280;66904;59.926;30.404;2023-08-06T16:44:53;101218.84;;;28.72;55.33
77739;BME280;66904;59.926;30.404;2023-08-06T16:49:54;101222.59;;;28.71;55.27
77739;BME280;66904;59.926;30.404;2023-08-06T16:54:57;101229.94;;;28.70;55.34
77739;BME280;66904;59.926;30.404;2023-08-06T16:59:58;101222.59;;;28.71;55.21
77739;BME280;66904;59.926;30.404;2023-08-06T17:04:58;101214.44;;;28.71;55.52
77739;BME280;66904;59.926;30.404;2023-08-06T17:09:59;101214.22;;;28.72;55.13
77739;BME280;66904;59.926;30.404;2023-08-06T17:14:59;101208.97;;;28.71;55.44
77739;BME280;66904;59.926;30.404;2023-08-06T17:20:00;101207.09;;;28.71;55.51
77739;BME280;66904;59.926;30.404;2023-08-06T17:25:01;101208.78;;;28.72;55.40
77739;BME280;66904;59.926;30.404;2023-08-06T17:30:03;101215.28;;;28.71;55.39
77739;BME280;66904;59.926;30.404;2023-08-06T17:35:04;101205.81;;;28.74;55.56
77739;BME280;66904;59.926;30.404;2023-08-06T17:40:05;101206.66;;;28.74;55.68
77739;BME280;66904;59.926;30.404;2023-08-06T17:45:07;101214.63;;;28.76;55.73
77739;BME280;66904;59.926;30.404;2023-08-06T17:50:08;101208.34;;;28.76;55.83
77739;BME280;66904;59.926;30.404;2023-08-06T17:55:09;101208.53;;;28.74;55.90
77739;BME280;66904;59.926;30.404;2023-08-06T18:00:10;101202.28;;;28.73;56.01
77739;BME280;66904;59.926;30.404;2023-08-06T18:05:11;101207.09;;;28.71;55.78
77739;BME280;66904;59.926;30.404;2023-08-06T18:10:14;101202.69;;;28.70;55.92
77739;BME280;66904;59.926;30.404;2023-08-06T18:15:15;101207.34;;;28.70;55.58
77739;BME280;66904;59.926;30.404;2023-08-06T18:20:16;101205.41;;;28.70;55.88
77739;BME280;66904;59.926;30.404;2023-08-06T18:25:16;101207.34;;;28.70;55.96
77739;BME280;66904;59.926;30.404;2023-08-06T18:30:17;101209.22;;;28.69;55.66
77739;BME280;66904;59.926;30.404;2023-08-06T18:35:18;101207.53;;;28.68;56.29
77739;BME280;66904;59.926;30.404;2023-08-06T18:40:18;101190.78;;;28.65;56.14
77739;BME280;66904;59.926;30.404;2023-08-06T18:45:19;101195.81;;;28.68;56.31
77739;BME280;66904;59.926;30.404;2023-08-06T18:50:19;101196.44;;;28.70;56.10
77739;BME280;66904;59.926;30.404;2023-08-06T18:55:20;101198.53;;;28.68;56.21
77739;BME280;66904;59.926;30.404;2023-08-06T19:00:21;101194.13;;;28.67;56.50
77739;BME280;66904;59.926;30.404;2023-08-06T19:05:21;101185.97;;;28.67;56.43
77739;BME280;66904;59.926;30.404;2023-08-06T19:10:22;101189.91;;;28.71;56.45
77739;BME280;66904;59.926;30.404;2023-08-06T19:15:24;101192.81;;;28.76;57.15
77739;BME280;66904;59.926;30.404;2023-08-06T19:20:25;101184.81;;;28.81;57.12
77739;BME280;66904;59.926;30.404;2023-08-06T19:25:25;101174.31;;;28.85;57.60
77739;BME280;66904;59.926;30.404;2023-08-06T19:30:26;101178.88;;;28.91;57.92
77739;BME280;66904;59.926;30.404;2023-08-06T19:35:27;101168.34;;;28.94;57.42
77739;BME280;66904;59.926;30.404;2023-08-06T19:40:27;101168.75;;;28.98;57.69
77739;BME280;66904;59.926;30.404;2023-08-06T19:45:28;101168.53;;;28.99;57.73
77739;BME280;66904;59.926;30.404;2023-08-06T19:50:28;101166.47;;;28.95;58.06
77739;BME280;66904;59.926;30.404;2023-08-06T19:55:29;101175.59;;;28.82;58.46
77739;BME280;66904;59.926;30.404;2023-08-06T20:00:29;101170.66;;;28.72;58.74
77739;BME280;66904;59.926;30.404;2023-08-06T20:05:30;101164.19;;;28.67;58.95
77739;BME280;66904;59.926;30.404;2023-08-06T20:10:30;101172.75;;;28.70;59.09
77739;BME280;66904;59.926;30.404;2023-08-06T20:15:31;101166.63;;;28.75;58.79
77739;BME280;66904;59.926;30.404;2023-08-06T20:20:41;101158.91;;;28.72;59.94
77739;BME280;66904;59.926;30.404;2023-08-06T20:25:41;101155.22;;;28.60;59.41
77739;BME280;66904;59.926;30.404;2023-08-06T20:30:42;101156.03;;;28.60;59.51
77739;BME280;66904;59.926;30.404;2023-08-06T20:35:45;101152.25;;;28.61;59.61
77739;BME280;66904;59.926;30.404;2023-08-06T20:40:46;101150.59;;;28.60;59.84
77739;BME280;66904;59.926;30.404;2023-08-06T20:45:57;101149.53;;;28.61;61.24
77739;BME280;66904;59.926;30.404;2023-08-06T20:51:00;101139.94;;;28.59;60.40
77739;BME280;66904;59.926;30.404;2023-08-06T20:56:02;101135.31;;;28.59;60.63
77739;BME280;66904;59.926;30.404;2023-08-06T21:01:03;101128.66;;;28.55;60.36
77739;BME280;66904;59.926;30.404;2023-08-06T21:06:06;101136.16;;;28.60;60.75
77739;BME280;66904;59.926;30.404;2023-08-06T21:11:07;101133.44;;;28.60;61.07
77739;BME280;66904;59.926;30.404;2023-08-06T21:16:09;101122.53;;;28.60;60.99
77739;BME280;66904;59.926;30.404;2023-08-06T21:21:09;101120.03;;;28.58;60.97
77739;BME280;66904;59.926;30.404;2023-08-06T21:26:10;101108.31;;;28.58;60.57
77739;BME280;66904;59.926;30.404;2023-08-06T21:31:12;101107.47;;;28.57;60.99
77739;BME280;66904;59.926;30.404;2023-08-06T21:36:12;101119.81;;;28.60;61.11
77739;BME280;66904;59.926;30.404;2023-08-06T21:41:15;101110.03;;;28.52;61.51
77739;BME280;66904;59.926;30.404;2023-08-06T21:46:17;101109.25;;;28.45;61.53
77739;BME280;66904;59.926;30.404;2023-08-06T21:51:19;101102.75;;;28.46;61.67
77739;BME280;66904;59.926;30.404;2023-08-06T21:56:20;101107.97;;;28.48;61.67
77739;BME280;66904;59.926;30.404;2023-08-06T22:01:21;101104.41;;;28.47;61.78
77739;BME280;66904;59.926;30.404;2023-08-06T22:06:21;101103.34;;;28.48;61.95
77739;BME280;66904;59.926;30.404;2023-08-06T22:11:22;101115.94;;;28.49;61.84
77739;BME280;66904;59.926;30.404;2023-08-06T22:16:23;101107.38;;;28.46;62.08
77739;BME280;66904;59.926;30.404;2023-08-06T22:21:23;101113.19;;;28.49;62.42
77739;BME280;66904;59.926;30.404;2023-08-06T22:26:24;101109.44;;;28.50;62.45
77739;BME280;66904;59.926;30.404;2023-08-06T22:31:24;101110.88;;;28.53;62.19
77739;BME280;66904;59.926;30.404;2023-08-06T22:36:26;101106.66;;;28.57;62.12
77739;BME280;66904;59.926;30.404;2023-08-06T22:41:27;101103.31;;;28.55;61.91
77739;BME280;66904;59.926;30.404;2023-08-06T22:46:27;101101.81;;;28.59;62.08
77739;BME280;66904;59.926;30.404;2023-08-06T22:51:28;101088.78;;;28.61;62.12
77739;BME280;66904;59.926;30.404;2023-08-06T22:56:28;101088.13;;;28.65;62.21
77739;BME280;66904;59.926;30.404;2023-08-06T23:01:29;101090.00;;;28.71;62.27
77739;BME280;66904;59.926;30.404;2023-08-06T23:06:30;101075.72;;;28.76;62.10
77739;BME280;66904;59.926;30.404;2023-08-06T23:11:30;101074.44;;;28.79;62.51
77739;BME280;66904;59.926;30.404;2023-08-06T23:16:31;101076.94;;;28.80;62.37
77739;BME280;66904;59.926;30.404;2023-08-06T23:21:31;101081.31;;;28.81;62.21
77739;BME280;66904;59.926;30.404;2023-08-06T23:26:32;101076.69;;;28.82;62.10
77739;BME280;66904;59.926;30.404;2023-08-06T23:31:32;101084.66;;;28.83;62.28
77739;BME280;66904;59.926;30.404;2023-08-06T23:36:33;101075.66;;;28.83;62.43
77739;BME280;66904;59.926;30.404;2023-08-06T23:41:33;101083.81;;;28.83;62.18
77739;BME280;66904;59.926;30.404;2023-08-06T23:46:34;101080.88;;;28.84;61.99
77739;BME280;66904;59.926;30.404;2023-08-06T23:51:36;101084.66;;;28.83;61.90
77739;BME280;66904;59.926;30.404;2023-08-06T23:56:36;101085.47;;;28.84;61.96
